Terminal Aerodrome Forecast
Issued by NWS Wilmington, OH

Current Version | Previous Version | Graphics & Text | Print | Product List | Glossary On
Versions: 1 2 3 4 5 6 7 8 9 10 11 12 13 14 15
000
FTUS41 KILN 260532
TAFCMH
TAF
KCMH 260532Z 2606/2706 33003KT P6SM BKN045
     FM261700 33007KT P6SM OVC040
     FM270000 36003KT P6SM BKN045=

USA.gov is the U.S. government's official web portal to all federal, state and local government web resources and services.